sensor_id;sensor_type;location;lat;lon;timestamp;P1;durP1;ratioP1;P2;durP2;ratioP2
20065;SDS011;10193;48.884;9.182;2024-03-02T00:00:39;6.90;;;6.20;;
20065;SDS011;10193;48.884;9.182;2024-03-02T00:03:05;6.85;;;6.22;;
20065;SDS011;10193;48.884;9.182;2024-03-02T00:05:35;7.13;;;6.00;;
20065;SDS011;10193;48.884;9.182;2024-03-02T00:08:03;7.72;;;6.32;;
20065;SDS011;10193;48.884;9.182;2024-03-02T00:10:33;7.60;;;6.40;;
20065;SDS011;10193;48.884;9.182;2024-03-02T00:13:04;7.82;;;6.20;;
20065;SDS011;10193;48.884;9.182;2024-03-02T00:15:37;6.90;;;6.25;;
20065;SDS011;10193;48.884;9.182;2024-03-02T00:18:07;6.65;;;5.97;;
20065;SDS011;10193;48.884;9.182;2024-03-02T00:20:37;8.00;;;6.07;;
20065;SDS011;10193;48.884;9.182;2024-03-02T00:23:05;6.78;;;5.88;;
20065;SDS011;10193;48.884;9.182;2024-03-02T00:25:36;6.30;;;5.70;;
20065;SDS011;10193;48.884;9.182;2024-03-02T00:28:05;6.60;;;5.72;;
20065;SDS011;10193;48.884;9.182;2024-03-02T00:33:21;6.78;;;6.07;;
20065;SDS011;10193;48.884;9.182;2024-03-02T00:35:49;6.72;;;6.03;;
20065;SDS011;10193;48.884;9.182;2024-03-02T00:38:16;6.40;;;5.80;;
20065;SDS011;10193;48.884;9.182;2024-03-02T00:40:43;7.88;;;6.05;;
20065;SDS011;10193;48.884;9.182;2024-03-02T00:43:15;6.80;;;6.10;;
20065;SDS011;10193;48.884;9.182;2024-03-02T00:46:04;6.50;;;5.90;;
20065;SDS011;10193;48.884;9.182;2024-03-02T00:48:32;6.97;;;5.95;;
20065;SDS011;10193;48.884;9.182;2024-03-02T00:51:02;6.50;;;5.90;;
20065;SDS011;10193;48.884;9.182;2024-03-02T00:53:29;6.97;;;6.28;;
20065;SDS011;10193;48.884;9.182;2024-03-02T00:55:57;6.43;;;5.70;;
20065;SDS011;10193;48.884;9.182;2024-03-02T00:58:24;7.35;;;6.63;;
20065;SDS011;10193;48.884;9.182;2024-03-02T01:00:50;6.32;;;5.72;;
20065;SDS011;10193;48.884;9.182;2024-03-02T01:03:17;6.80;;;6.18;;
20065;SDS011;10193;48.884;9.182;2024-03-02T01:05:44;6.13;;;5.57;;
20065;SDS011;10193;48.884;9.182;2024-03-02T01:08:13;6.57;;;5.95;;
20065;SDS011;10193;48.884;9.182;2024-03-02T01:10:39;7.20;;;6.50;;
20065;SDS011;10193;48.884;9.182;2024-03-02T01:13:06;6.93;;;6.25;;
20065;SDS011;10193;48.884;9.182;2024-03-02T01:15:33;7.75;;;7.00;;
20065;SDS011;10193;48.884;9.182;2024-03-02T01:18:00;7.55;;;6.45;;
20065;SDS011;10193;48.884;9.182;2024-03-02T01:20:26;6.68;;;5.97;;
20065;SDS011;10193;48.884;9.182;2024-03-02T01:22:52;6.85;;;6.15;;
20065;SDS011;10193;48.884;9.182;2024-03-02T01:25:20;6.72;;;6.13;;
20065;SDS011;10193;48.884;9.182;2024-03-02T01:27:47;6.72;;;6.13;;
20065;SDS011;10193;48.884;9.182;2024-03-02T01:30:14;6.90;;;6.20;;
20065;SDS011;10193;48.884;9.182;2024-03-02T01:32:41;6.90;;;6.20;;
20065;SDS011;10193;48.884;9.182;2024-03-02T01:35:08;7.03;;;6.32;;
20065;SDS011;10193;48.884;9.182;2024-03-02T01:37:34;7.03;;;6.32;;
20065;SDS011;10193;48.884;9.182;2024-03-02T01:40:01;6.90;;;6.20;;
20065;SDS011;10193;48.884;9.182;2024-03-02T01:42:34;7.55;;;6.82;;
20065;SDS011;10193;48.884;9.182;2024-03-02T01:45:02;8.98;;;6.43;;
20065;SDS011;10193;48.884;9.182;2024-03-02T01:47:30;7.47;;;6.72;;
20065;SDS011;10193;48.884;9.182;2024-03-02T01:49:57;7.45;;;6.75;;
20065;SDS011;10193;48.884;9.182;2024-03-02T01:52:24;7.05;;;6.35;;
20065;SDS011;10193;48.884;9.182;2024-03-02T01:54:51;7.40;;;6.70;;
20065;SDS011;10193;48.884;9.182;2024-03-02T01:57:17;6.93;;;5.88;;
20065;SDS011;10193;48.884;9.182;2024-03-02T01:59:46;7.22;;;6.50;;
20065;SDS011;10193;48.884;9.182;2024-03-02T02:02:13;7.25;;;6.55;;
20065;SDS011;10193;48.884;9.182;2024-03-02T02:04:40;7.40;;;6.70;;
20065;SDS011;10193;48.884;9.182;2024-03-02T02:07:07;6.82;;;6.13;;
20065;SDS011;10193;48.884;9.182;2024-03-02T02:09:33;7.40;;;6.60;;
20065;SDS011;10193;48.884;9.182;2024-03-02T02:12:00;7.50;;;6.72;;
20065;SDS011;10193;48.884;9.182;2024-03-02T02:14:27;7.10;;;6.40;;
20065;SDS011;10193;48.884;9.182;2024-03-02T02:16:56;8.30;;;6.57;;
20065;SDS011;10193;48.884;9.182;2024-03-02T02:19:22;7.03;;;6.32;;
20065;SDS011;10193;48.884;9.182;2024-03-02T02:21:50;7.80;;;6.43;;
20065;SDS011;10193;48.884;9.182;2024-03-02T02:24:17;6.88;;;6.18;;
20065;SDS011;10193;48.884;9.182;2024-03-02T02:26:44;6.30;;;5.70;;
20065;SDS011;10193;48.884;9.182;2024-03-02T02:29:10;7.45;;;5.97;;
20065;SDS011;10193;48.884;9.182;2024-03-02T02:31:37;6.75;;;6.05;;
20065;SDS011;10193;48.884;9.182;2024-03-02T02:34:04;7.25;;;6.55;;
20065;SDS011;10193;48.884;9.182;2024-03-02T02:36:31;6.82;;;6.13;;
20065;SDS011;10193;48.884;9.182;2024-03-02T02:39:01;6.57;;;5.90;;
20065;SDS011;10193;48.884;9.182;2024-03-02T02:41:29;6.00;;;5.45;;
20065;SDS011;10193;48.884;9.182;2024-03-02T02:43:56;6.38;;;5.70;;
20065;SDS011;10193;48.884;9.182;2024-03-02T02:46:23;6.78;;;6.00;;
20065;SDS011;10193;48.884;9.182;2024-03-02T02:48:50;8.38;;;6.60;;
20065;SDS011;10193;48.884;9.182;2024-03-02T02:51:18;6.55;;;5.90;;
20065;SDS011;10193;48.884;9.182;2024-03-02T02:53:44;6.88;;;6.18;;
20065;SDS011;10193;48.884;9.182;2024-03-02T02:56:12;6.88;;;6.13;;
20065;SDS011;10193;48.884;9.182;2024-03-02T02:58:39;6.97;;;6.18;;
20065;SDS011;10193;48.884;9.182;2024-03-02T03:01:06;6.85;;;6.07;;
20065;SDS011;10193;48.884;9.182;2024-03-02T03:03:33;6.80;;;6.10;;
20065;SDS011;10193;48.884;9.182;2024-03-02T03:06:00;7.30;;;6.50;;
20065;SDS011;10193;48.884;9.182;2024-03-02T03:08:27;7.32;;;6.40;;
20065;SDS011;10193;48.884;9.182;2024-03-02T03:10:54;6.70;;;6.10;;
20065;SDS011;10193;48.884;9.182;2024-03-02T03:13:22;7.80;;;6.60;;
20065;SDS011;10193;48.884;9.182;2024-03-02T03:15:49;7.13;;;6.43;;
20065;SDS011;10193;48.884;9.182;2024-03-02T03:18:17;7.32;;;6.53;;
20065;SDS011;10193;48.884;9.182;2024-03-02T03:20:44;7.15;;;6.45;;
20065;SDS011;10193;48.884;9.182;2024-03-02T03:23:11;6.95;;;6.25;;
20065;SDS011;10193;48.884;9.182;2024-03-02T03:25:40;6.40;;;5.80;;
20065;SDS011;10193;48.884;9.182;2024-03-02T03:28:06;7.53;;;6.35;;
20065;SDS011;10193;48.884;9.182;2024-03-02T03:30:36;6.72;;;6.03;;
20065;SDS011;10193;48.884;9.182;2024-03-02T03:33:03;7.05;;;6.22;;
20065;SDS011;10193;48.884;9.182;2024-03-02T03:35:30;7.22;;;6.15;;
20065;SDS011;10193;48.884;9.182;2024-03-02T03:37:57;7.35;;;6.57;;
20065;SDS011;10193;48.884;9.182;2024-03-02T03:40:24;7.28;;;6.55;;
20065;SDS011;10193;48.884;9.182;2024-03-02T03:42:51;6.80;;;6.13;;
20065;SDS011;10193;48.884;9.182;2024-03-02T03:45:18;7.18;;;6.47;;
20065;SDS011;10193;48.884;9.182;2024-03-02T03:47:46;7.25;;;6.55;;
20065;SDS011;10193;48.884;9.182;2024-03-02T03:50:13;7.68;;;6.90;;
20065;SDS011;10193;48.884;9.182;2024-03-02T03:52:40;6.43;;;5.82;;
20065;SDS011;10193;48.884;9.182;2024-03-02T03:55:07;6.97;;;6.28;;
20065;SDS011;10193;48.884;9.182;2024-03-02T03:57:35;7.53;;;6.60;;
20065;SDS011;10193;48.884;9.182;2024-03-02T04:00:02;7.10;;;6.40;;
20065;SDS011;10193;48.884;9.182;2024-03-02T04:02:29;7.32;;;6.38;;
20065;SDS011;10193;48.884;9.182;2024-03-02T04:04:57;8.27;;;7.40;;
20065;SDS011;10193;48.884;9.182;2024-03-02T04:07:24;6.88;;;6.18;;
20065;SDS011;10193;48.884;9.182;2024-03-02T04:09:50;6.90;;;6.20;;
20065;SDS011;10193;48.884;9.182;2024-03-02T04:12:17;6.72;;;6.03;;
20065;SDS011;10193;48.884;9.182;2024-03-02T04:14:43;6.95;;;6.25;;
20065;SDS011;10193;48.884;9.182;2024-03-02T04:17:10;7.00;;;6.30;;
20065;SDS011;10193;48.884;9.182;2024-03-02T04:19:36;7.07;;;6.38;;
20065;SDS011;10193;48.884;9.182;2024-03-02T04:22:04;6.80;;;6.07;;
20065;SDS011;10193;48.884;9.182;2024-03-02T04:24:31;7.28;;;6.57;;
20065;SDS011;10193;48.884;9.182;2024-03-02T04:26:57;7.43;;;6.72;;
20065;SDS011;10193;48.884;9.182;2024-03-02T04:29:24;7.40;;;6.68;;
20065;SDS011;10193;48.884;9.182;2024-03-02T04:31:51;6.85;;;6.18;;
20065;SDS011;10193;48.884;9.182;2024-03-02T04:34:17;7.75;;;6.95;;
20065;SDS011;10193;48.884;9.182;2024-03-02T04:36:44;7.10;;;6.40;;
20065;SDS011;10193;48.884;9.182;2024-03-02T04:39:12;7.38;;;6.65;;
20065;SDS011;10193;48.884;9.182;2024-03-02T04:41:38;8.02;;;6.53;;
20065;SDS011;10193;48.884;9.182;2024-03-02T04:44:05;7.97;;;6.57;;
20065;SDS011;10193;48.884;9.182;2024-03-02T04:46:33;7.45;;;6.75;;
20065;SDS011;10193;48.884;9.182;2024-03-02T04:48:59;7.20;;;6.25;;
20065;SDS011;10193;48.884;9.182;2024-03-02T04:51:26;7.30;;;6.55;;
20065;SDS011;10193;48.884;9.182;2024-03-02T04:53:53;7.15;;;6.45;;
20065;SDS011;10193;48.884;9.182;2024-03-02T04:56:20;7.88;;;7.13;;
20065;SDS011;10193;48.884;9.182;2024-03-02T04:59:05;8.00;;;7.15;;
20065;SDS011;10193;48.884;9.182;2024-03-02T05:01:32;7.13;;;6.43;;
20065;SDS011;10193;48.884;9.182;2024-03-02T05:03:59;7.32;;;6.63;;
20065;SDS011;10193;48.884;9.182;2024-03-02T05:06:25;7.28;;;6.32;;
20065;SDS011;10193;48.884;9.182;2024-03-02T05:08:52;7.32;;;6.43;;
20065;SDS011;10193;48.884;9.182;2024-03-02T05:11:20;6.95;;;6.22;;
20065;SDS011;10193;48.884;9.182;2024-03-02T05:14:18;6.80;;;6.20;;
20065;SDS011;10193;48.884;9.182;2024-03-02T05:16:44;7.00;;;6.35;;
20065;SDS011;10193;48.884;9.182;2024-03-02T05:19:11;7.30;;;6.60;;
20065;SDS011;10193;48.884;9.182;2024-03-02T05:21:38;7.13;;;6.30;;
20065;SDS011;10193;48.884;9.182;2024-03-02T05:24:04;7.10;;;6.40;;
20065;SDS011;10193;48.884;9.182;2024-03-02T05:26:33;7.10;;;6.40;;
20065;SDS011;10193;48.884;9.182;2024-03-02T05:28:59;7.57;;;6.70;;
20065;SDS011;10193;48.884;9.182;2024-03-02T05:31:25;6.85;;;6.15;;
20065;SDS011;10193;48.884;9.182;2024-03-02T05:33:52;7.43;;;6.63;;
20065;SDS011;10193;48.884;9.182;2024-03-02T05:36:18;7.10;;;6.40;;
20065;SDS011;10193;48.884;9.182;2024-03-02T05:38:45;7.75;;;6.53;;
20065;SDS011;10193;48.884;9.182;2024-03-02T05:41:12;7.78;;;6.97;;
20065;SDS011;10193;48.884;9.182;2024-03-02T05:43:40;7.60;;;6.80;;
20065;SDS011;10193;48.884;9.182;2024-03-02T05:46:07;7.90;;;7.03;;
20065;SDS011;10193;48.884;9.182;2024-03-02T05:48:33;7.75;;;6.95;;
20065;SDS011;10193;48.884;9.182;2024-03-02T05:51:00;7.90;;;6.50;;
20065;SDS011;10193;48.884;9.182;2024-03-02T05:53:27;7.47;;;6.67;;
20065;SDS011;10193;48.884;9.182;2024-03-02T05:55:54;7.65;;;6.30;;
20065;SDS011;10193;48.884;9.182;2024-03-02T05:58:21;8.73;;;7.07;;
20065;SDS011;10193;48.884;9.182;2024-03-02T06:01:00;7.17;;;6.47;;
20065;SDS011;10193;48.884;9.182;2024-03-02T06:03:26;7.30;;;6.53;;
20065;SDS011;10193;48.884;9.182;2024-03-02T06:05:53;7.75;;;6.80;;
20065;SDS011;10193;48.884;9.182;2024-03-02T06:08:20;6.88;;;6.25;;
20065;SDS011;10193;48.884;9.182;2024-03-02T06:10:47;7.45;;;6.45;;
20065;SDS011;10193;48.884;9.182;2024-03-02T06:13:14;7.50;;;6.75;;
20065;SDS011;10193;48.884;9.182;2024-03-02T06:15:40;8.00;;;6.90;;
20065;SDS011;10193;48.884;9.182;2024-03-02T06:18:09;8.27;;;7.38;;
20065;SDS011;10193;48.884;9.182;2024-03-02T06:20:35;8.02;;;7.22;;
20065;SDS011;10193;48.884;9.182;2024-03-02T06:23:02;8.07;;;7.27;;
20065;SDS011;10193;48.884;9.182;2024-03-02T06:25:29;8.90;;;7.60;;
20065;SDS011;10193;48.884;9.182;2024-03-02T06:27:56;8.20;;;7.20;;
20065;SDS011;10193;48.884;9.182;2024-03-02T06:30:22;8.35;;;7.40;;
20065;SDS011;10193;48.884;9.182;2024-03-02T06:32:48;8.20;;;7.40;;
20065;SDS011;10193;48.884;9.182;2024-03-02T06:35:16;8.80;;;7.22;;
20065;SDS011;10193;48.884;9.182;2024-03-02T06:37:43;8.10;;;7.30;;
20065;SDS011;10193;48.884;9.182;2024-03-02T06:40:10;8.33;;;7.23;;
20065;SDS011;10193;48.884;9.182;2024-03-02T06:42:37;7.90;;;7.10;;
20065;SDS011;10193;48.884;9.182;2024-03-02T06:45:04;8.77;;;7.63;;
20065;SDS011;10193;48.884;9.182;2024-03-02T06:47:31;7.90;;;7.13;;
20065;SDS011;10193;48.884;9.182;2024-03-02T06:49:57;8.18;;;7.38;;
20065;SDS011;10193;48.884;9.182;2024-03-02T06:52:25;8.63;;;7.72;;
20065;SDS011;10193;48.884;9.182;2024-03-02T06:54:52;8.13;;;7.30;;
20065;SDS011;10193;48.884;9.182;2024-03-02T06:57:19;8.13;;;7.32;;
20065;SDS011;10193;48.884;9.182;2024-03-02T06:59:45;7.90;;;7.10;;
20065;SDS011;10193;48.884;9.182;2024-03-02T07:02:13;8.10;;;7.30;;
20065;SDS011;10193;48.884;9.182;2024-03-02T07:04:40;8.25;;;7.45;;
20065;SDS011;10193;48.884;9.182;2024-03-02T07:07:07;7.70;;;6.97;;
20065;SDS011;10193;48.884;9.182;2024-03-02T07:09:35;8.10;;;7.30;;
20065;SDS011;10193;48.884;9.182;2024-03-02T07:12:01;8.00;;;7.20;;
20065;SDS011;10193;48.884;9.182;2024-03-02T07:14:28;9.50;;;8.38;;
20065;SDS011;10193;48.884;9.182;2024-03-02T07:17:09;8.85;;;7.95;;
20065;SDS011;10193;48.884;9.182;2024-03-02T07:19:35;8.90;;;8.00;;
20065;SDS011;10193;48.884;9.182;2024-03-02T07:22:05;8.63;;;7.72;;
20065;SDS011;10193;48.884;9.182;2024-03-02T07:24:33;8.32;;;7.45;;
20065;SDS011;10193;48.884;9.182;2024-03-02T07:27:07;8.30;;;7.32;;
20065;SDS011;10193;48.884;9.182;2024-03-02T07:29:34;8.07;;;7.22;;
20065;SDS011;10193;48.884;9.182;2024-03-02T07:32:04;8.27;;;7.47;;
20065;SDS011;10193;48.884;9.182;2024-03-02T07:34:31;8.90;;;7.78;;
20065;SDS011;10193;48.884;9.182;2024-03-02T07:37:01;8.30;;;7.07;;
20065;SDS011;10193;48.884;9.182;2024-03-02T07:39:27;8.35;;;7.45;;
20065;SDS011;10193;48.884;9.182;2024-03-02T07:41:56;8.18;;;7.38;;
20065;SDS011;10193;48.884;9.182;2024-03-02T07:44:23;8.13;;;7.25;;
20065;SDS011;10193;48.884;9.182;2024-03-02T07:47:02;8.25;;;7.28;;
20065;SDS011;10193;48.884;9.182;2024-03-02T07:49:29;8.20;;;7.40;;
20065;SDS011;10193;48.884;9.182;2024-03-02T07:51:56;7.88;;;7.18;;
20065;SDS011;10193;48.884;9.182;2024-03-02T07:54:23;7.60;;;6.90;;
20065;SDS011;10193;48.884;9.182;2024-03-02T07:56:50;7.63;;;6.85;;
20065;SDS011;10193;48.884;9.182;2024-03-02T07:59:19;7.90;;;7.10;;
20065;SDS011;10193;48.884;9.182;2024-03-02T08:01:47;7.55;;;6.80;;
20065;SDS011;10193;48.884;9.182;2024-03-02T08:04:14;7.90;;;7.07;;
20065;SDS011;10193;48.884;9.182;2024-03-02T08:06:41;8.13;;;7.10;;
20065;SDS011;10193;48.884;9.182;2024-03-02T08:09:08;7.63;;;6.93;;
20065;SDS011;10193;48.884;9.182;2024-03-02T08:11:35;7.45;;;6.53;;
20065;SDS011;10193;48.884;9.182;2024-03-02T08:14:02;7.40;;;6.70;;
20065;SDS011;10193;48.884;9.182;2024-03-02T08:16:30;7.40;;;6.70;;
20065;SDS011;10193;48.884;9.182;2024-03-02T08:18:57;7.70;;;6.90;;
20065;SDS011;10193;48.884;9.182;2024-03-02T08:21:24;7.60;;;6.80;;
20065;SDS011;10193;48.884;9.182;2024-03-02T08:23:51;6.97;;;6.28;;
20065;SDS011;10193;48.884;9.182;2024-03-02T08:26:18;7.43;;;6.72;;
20065;SDS011;10193;48.884;9.182;2024-03-02T08:28:44;7.00;;;6.30;;
20065;SDS011;10193;48.884;9.182;2024-03-02T08:31:11;6.50;;;5.90;;
20065;SDS011;10193;48.884;9.182;2024-03-02T08:33:39;6.18;;;5.57;;
20065;SDS011;10193;48.884;9.182;2024-03-02T08:36:07;6.50;;;5.90;;
20065;SDS011;10193;48.884;9.182;2024-03-02T08:38:35;6.40;;;5.80;;
20065;SDS011;10193;48.884;9.182;2024-03-02T08:41:01;5.93;;;5.43;;
20065;SDS011;10193;48.884;9.182;2024-03-02T08:43:28;6.47;;;5.88;;
20065;SDS011;10193;48.884;9.182;2024-03-02T08:45:55;6.15;;;5.55;;
20065;SDS011;10193;48.884;9.182;2024-03-02T08:48:22;6.15;;;5.55;;
20065;SDS011;10193;48.884;9.182;2024-03-02T08:50:50;5.85;;;5.35;;
20065;SDS011;10193;48.884;9.182;2024-03-02T08:53:17;5.93;;;5.22;;
20065;SDS011;10193;48.884;9.182;2024-03-02T08:55:44;5.72;;;5.18;;
20065;SDS011;10193;48.884;9.182;2024-03-02T08:58:11;5.00;;;4.60;;
20065;SDS011;10193;48.884;9.182;2024-03-02T09:00:38;5.32;;;4.82;;
20065;SDS011;10193;48.884;9.182;2024-03-02T09:03:05;5.38;;;4.88;;
20065;SDS011;10193;48.884;9.182;2024-03-02T09:05:32;5.22;;;4.72;;
20065;SDS011;10193;48.884;9.182;2024-03-02T09:08:00;5.50;;;5.00;;
20065;SDS011;10193;48.884;9.182;2024-03-02T09:10:28;5.10;;;4.60;;
20065;SDS011;10193;48.884;9.182;2024-03-02T09:12:55;4.82;;;4.43;;
20065;SDS011;10193;48.884;9.182;2024-03-02T09:15:22;4.90;;;4.50;;
20065;SDS011;10193;48.884;9.182;2024-03-02T09:17:48;4.22;;;3.83;;
20065;SDS011;10193;48.884;9.182;2024-03-02T09:20:15;4.60;;;4.20;;
20065;SDS011;10193;48.884;9.182;2024-03-02T09:22:42;4.22;;;3.88;;
20065;SDS011;10193;48.884;9.182;2024-03-02T09:25:10;4.15;;;3.75;;
20065;SDS011;10193;48.884;9.182;2024-03-02T09:27:36;4.38;;;3.90;;
20065;SDS011;10193;48.884;9.182;2024-03-02T09:30:03;4.10;;;3.80;;
20065;SDS011;10193;48.884;9.182;2024-03-02T09:32:31;4.03;;;3.72;;
20065;SDS011;10193;48.884;9.182;2024-03-02T09:34:58;4.07;;;3.78;;
20065;SDS011;10193;48.884;9.182;2024-03-02T09:37:25;4.18;;;3.88;;
20065;SDS011;10193;48.884;9.182;2024-03-02T09:39:52;3.90;;;3.60;;
20065;SDS011;10193;48.884;9.182;2024-03-02T09:42:21;3.88;;;3.58;;
20065;SDS011;10193;48.884;9.182;2024-03-02T09:44:48;4.55;;;3.90;;
20065;SDS011;10193;48.884;9.182;2024-03-02T09:47:15;3.85;;;3.55;;
20065;SDS011;10193;48.884;9.182;2024-03-02T09:49:41;3.90;;;3.60;;
20065;SDS011;10193;48.884;9.182;2024-03-02T09:52:08;4.30;;;3.90;;
20065;SDS011;10193;48.884;9.182;2024-03-02T09:54:36;4.03;;;3.72;;
20065;SDS011;10193;48.884;9.182;2024-03-02T09:57:03;4.05;;;3.75;;
20065;SDS011;10193;48.884;9.182;2024-03-02T09:59:32;3.80;;;3.50;;
20065;SDS011;10193;48.884;9.182;2024-03-02T10:01:59;3.95;;;3.65;;
20065;SDS011;10193;48.884;9.182;2024-03-02T10:04:27;4.00;;;3.60;;
20065;SDS011;10193;48.884;9.182;2024-03-02T10:07:09;3.80;;;3.50;;
20065;SDS011;10193;48.884;9.182;2024-03-02T10:09:39;4.15;;;3.75;;
20065;SDS011;10193;48.884;9.182;2024-03-02T10:12:07;3.90;;;3.60;;
20065;SDS011;10193;48.884;9.182;2024-03-02T10:14:36;3.50;;;3.30;;
20065;SDS011;10193;48.884;9.182;2024-03-02T10:17:03;3.83;;;3.53;;
20065;SDS011;10193;48.884;9.182;2024-03-02T10:19:31;3.50;;;3.22;;
20065;SDS011;10193;48.884;9.182;2024-03-02T10:22:00;3.88;;;3.58;;
20065;SDS011;10193;48.884;9.182;2024-03-02T10:24:28;3.70;;;3.40;;
20065;SDS011;10193;48.884;9.182;2024-03-02T10:27:06;3.22;;;3.00;;
20065;SDS011;10193;48.884;9.182;2024-03-02T10:29:34;3.20;;;3.00;;
20065;SDS011;10193;48.884;9.182;2024-03-02T10:32:05;3.40;;;3.10;;
20065;SDS011;10193;48.884;9.182;2024-03-02T10:34:32;3.20;;;3.00;;
20065;SDS011;10193;48.884;9.182;2024-03-02T10:36:59;3.30;;;3.10;;
20065;SDS011;10193;48.884;9.182;2024-03-02T10:39:25;3.08;;;2.83;;
20065;SDS011;10193;48.884;9.182;2024-03-02T10:41:52;3.17;;;2.97;;
20065;SDS011;10193;48.884;9.182;2024-03-02T10:44:21;3.30;;;3.10;;
20065;SDS011;10193;48.884;9.182;2024-03-02T10:46:50;3.05;;;2.75;;
20065;SDS011;10193;48.884;9.182;2024-03-02T10:49:18;2.85;;;2.65;;
20065;SDS011;10193;48.884;9.182;2024-03-02T10:51:47;2.60;;;2.40;;
20065;SDS011;10193;48.884;9.182;2024-03-02T10:54:13;4.95;;;2.67;;
20065;SDS011;10193;48.884;9.182;2024-03-02T10:56:41;2.53;;;2.40;;
20065;SDS011;10193;48.884;9.182;2024-03-02T10:59:12;2.95;;;2.75;;
20065;SDS011;10193;48.884;9.182;2024-03-02T11:01:45;2.53;;;2.33;;
20065;SDS011;10193;48.884;9.182;2024-03-02T11:04:17;2.50;;;2.30;;
20065;SDS011;10193;48.884;9.182;2024-03-02T11:06:49;2.58;;;2.38;;
20065;SDS011;10193;48.884;9.182;2024-03-02T11:09:18;2.25;;;2.15;;
20065;SDS011;10193;48.884;9.182;2024-03-02T11:11:48;2.15;;;2.05;;
20065;SDS011;10193;48.884;9.182;2024-03-02T11:14:21;2.00;;;1.90;;
20065;SDS011;10193;48.884;9.182;2024-03-02T11:16:50;2.30;;;2.20;;
20065;SDS011;10193;48.884;9.182;2024-03-02T11:19:20;2.03;;;1.92;;
20065;SDS011;10193;48.884;9.182;2024-03-02T11:21:47;2.03;;;1.70;;
20065;SDS011;10193;48.884;9.182;2024-03-02T11:24:30;2.00;;;1.90;;
20065;SDS011;10193;48.884;9.182;2024-03-02T11:26:58;1.73;;;1.63;;
20065;SDS011;10193;48.884;9.182;2024-03-02T11:32:18;1.63;;;1.52;;
20065;SDS011;10193;48.884;9.182;2024-03-02T11:34:49;1.58;;;1.48;;
20065;SDS011;10193;48.884;9.182;2024-03-02T11:37:17;1.50;;;1.40;;
20065;SDS011;10193;48.884;9.182;2024-03-02T11:39:45;1.60;;;1.50;;
20065;SDS011;10193;48.884;9.182;2024-03-02T11:42:12;1.80;;;1.70;;
20065;SDS011;10193;48.884;9.182;2024-03-02T11:44:41;1.60;;;1.50;;
20065;SDS011;10193;48.884;9.182;2024-03-02T11:47:10;1.30;;;1.20;;
20065;SDS011;10193;48.884;9.182;2024-03-02T11:49:40;1.73;;;1.63;;
20065;SDS011;10193;48.884;9.182;2024-03-02T11:52:09;1.50;;;1.40;;
20065;SDS011;10193;48.884;9.182;2024-03-02T11:54:37;1.70;;;1.60;;
20065;SDS011;10193;48.884;9.182;2024-03-02T11:57:05;1.35;;;1.23;;
20065;SDS011;10193;48.884;9.182;2024-03-02T11:59:33;1.33;;;1.23;;
20065;SDS011;10193;48.884;9.182;2024-03-02T12:01:59;1.10;;;1.10;;
20065;SDS011;10193;48.884;9.182;2024-03-02T12:04:27;1.13;;;1.08;;
20065;SDS011;10193;48.884;9.182;2024-03-02T12:06:56;1.15;;;1.15;;
20065;SDS011;10193;48.884;9.182;2024-03-02T12:09:27;0.98;;;0.98;;
20065;SDS011;10193;48.884;9.182;2024-03-02T12:12:03;1.95;;;1.23;;
20065;SDS011;10193;48.884;9.182;2024-03-02T12:14:31;1.15;;;1.15;;
20065;SDS011;10193;48.884;9.182;2024-03-02T12:16:58;1.40;;;1.30;;
20065;SDS011;10193;48.884;9.182;2024-03-02T12:19:25;2.13;;;1.73;;
20065;SDS011;10193;48.884;9.182;2024-03-02T12:21:51;1.40;;;1.30;;
20065;SDS011;10193;48.884;9.182;2024-03-02T12:24:19;1.25;;;1.20;;
20065;SDS011;10193;48.884;9.182;2024-03-02T12:26:48;2.75;;;1.45;;
20065;SDS011;10193;48.884;9.182;2024-03-02T12:29:15;1.20;;;1.20;;
20065;SDS011;10193;48.884;9.182;2024-03-02T12:31:42;1.52;;;1.42;;
20065;SDS011;10193;48.884;9.182;2024-03-02T12:34:10;1.00;;;1.00;;
20065;SDS011;10193;48.884;9.182;2024-03-02T12:36:38;0.90;;;0.90;;
20065;SDS011;10193;48.884;9.182;2024-03-02T12:39:06;1.00;;;1.00;;
20065;SDS011;10193;48.884;9.182;2024-03-02T12:41:35;0.77;;;0.77;;
20065;SDS011;10193;48.884;9.182;2024-03-02T12:44:03;1.45;;;1.27;;
20065;SDS011;10193;48.884;9.182;2024-03-02T12:46:30;0.93;;;0.93;;
20065;SDS011;10193;48.884;9.182;2024-03-02T12:48:57;1.00;;;0.90;;
20065;SDS011;10193;48.884;9.182;2024-03-02T12:51:26;1.33;;;1.23;;
20065;SDS011;10193;48.884;9.182;2024-03-02T12:53:56;0.95;;;0.95;;
20065;SDS011;10193;48.884;9.182;2024-03-02T12:56:24;0.88;;;0.88;;
20065;SDS011;10193;48.884;9.182;2024-03-02T12:58:52;0.90;;;0.90;;
20065;SDS011;10193;48.884;9.182;2024-03-02T13:01:21;0.68;;;0.68;;
20065;SDS011;10193;48.884;9.182;2024-03-02T13:03:48;1.10;;;0.90;;
20065;SDS011;10193;48.884;9.182;2024-03-02T13:06:16;0.90;;;0.90;;
20065;SDS011;10193;48.884;9.182;2024-03-02T13:08:44;0.77;;;0.77;;
20065;SDS011;10193;48.884;9.182;2024-03-02T13:11:11;1.00;;;0.90;;
20065;SDS011;10193;48.884;9.182;2024-03-02T13:13:38;1.00;;;0.90;;
20065;SDS011;10193;48.884;9.182;2024-03-02T13:16:07;1.08;;;1.00;;
20065;SDS011;10193;48.884;9.182;2024-03-02T13:18:36;0.60;;;0.60;;
20065;SDS011;10193;48.884;9.182;2024-03-02T13:21:04;0.90;;;0.90;;
20065;SDS011;10193;48.884;9.182;2024-03-02T13:23:33;0.90;;;0.90;;
20065;SDS011;10193;48.884;9.182;2024-03-02T13:26:00;0.45;;;0.45;;
20065;SDS011;10193;48.884;9.182;2024-03-02T13:28:27;0.70;;;0.70;;
20065;SDS011;10193;48.884;9.182;2024-03-02T13:30:54;0.60;;;0.60;;
20065;SDS011;10193;48.884;9.182;2024-03-02T13:33:21;0.80;;;0.70;;
20065;SDS011;10193;48.884;9.182;2024-03-02T13:35:49;0.70;;;0.70;;
20065;SDS011;10193;48.884;9.182;2024-03-02T13:38:16;0.50;;;0.50;;
20065;SDS011;10193;48.884;9.182;2024-03-02T13:40:43;0.50;;;0.50;;
20065;SDS011;10193;48.884;9.182;2024-03-02T13:43:10;0.57;;;0.57;;
20065;SDS011;10193;48.884;9.182;2024-03-02T13:45:37;0.60;;;0.60;;
20065;SDS011;10193;48.884;9.182;2024-03-02T13:48:04;0.60;;;0.60;;
20065;SDS011;10193;48.884;9.182;2024-03-02T13:50:32;0.93;;;0.68;;
20065;SDS011;10193;48.884;9.182;2024-03-02T13:53:00;0.55;;;0.55;;
20065;SDS011;10193;48.884;9.182;2024-03-02T13:55:28;0.50;;;0.50;;
20065;SDS011;10193;48.884;9.182;2024-03-02T13:57:55;1.90;;;1.80;;
20065;SDS011;10193;48.884;9.182;2024-03-02T14:00:22;1.00;;;1.00;;
20065;SDS011;10193;48.884;9.182;2024-03-02T14:02:49;1.25;;;1.25;;
20065;SDS011;10193;48.884;9.182;2024-03-02T14:05:16;1.90;;;1.80;;
20065;SDS011;10193;48.884;9.182;2024-03-02T14:07:43;1.33;;;1.23;;
20065;SDS011;10193;48.884;9.182;2024-03-02T14:10:11;1.40;;;1.30;;
20065;SDS011;10193;48.884;9.182;2024-03-02T14:12:38;2.60;;;2.40;;
20065;SDS011;10193;48.884;9.182;2024-03-02T14:15:06;3.60;;;3.30;;
20065;SDS011;10193;48.884;9.182;2024-03-02T14:17:33;1.77;;;1.67;;
20065;SDS011;10193;48.884;9.182;2024-03-02T14:20:00;1.60;;;1.50;;
20065;SDS011;10193;48.884;9.182;2024-03-02T14:22:29;1.30;;;1.20;;
20065;SDS011;10193;48.884;9.182;2024-03-02T14:24:56;2.72;;;2.53;;
20065;SDS011;10193;48.884;9.182;2024-03-02T14:27:24;1.40;;;1.30;;
20065;SDS011;10193;48.884;9.182;2024-03-02T14:29:52;1.52;;;1.27;;
20065;SDS011;10193;48.884;9.182;2024-03-02T14:32:19;1.00;;;0.98;;
20065;SDS011;10193;48.884;9.182;2024-03-02T14:34:46;1.15;;;1.13;;
20065;SDS011;10193;48.884;9.182;2024-03-02T14:37:13;1.10;;;1.10;;
20065;SDS011;10193;48.884;9.182;2024-03-02T14:39:40;1.00;;;1.00;;
20065;SDS011;10193;48.884;9.182;2024-03-02T14:42:07;1.10;;;1.05;;
20065;SDS011;10193;48.884;9.182;2024-03-02T14:44:35;0.90;;;0.90;;
20065;SDS011;10193;48.884;9.182;2024-03-02T14:47:02;0.80;;;0.80;;
20065;SDS011;10193;48.884;9.182;2024-03-02T14:49:29;0.82;;;0.82;;
20065;SDS011;10193;48.884;9.182;2024-03-02T14:51:58;1.30;;;1.00;;
20065;SDS011;10193;48.884;9.182;2024-03-02T14:54:25;0.70;;;0.70;;
20065;SDS011;10193;48.884;9.182;2024-03-02T14:56:52;1.00;;;0.95;;